Terminal Aerodrome Forecast
Issued by NWS Atlanta, GA

Home | Current Version | Previous Version | Text Only | Print | Product List | Glossary On
Versions: 1 2 3 4 5 6 7 8 9 10 11 12 13 14 15 16 17 18 19 20 21 22 23 24 25 26 27 28 29 30 31 32 33 34 35 36 37 38 39
387
FTAK31 PAJN 061729
TAFAHN
TAF
PAHN 061729Z 0618/0718 09015G25KT 4SM RA BR SCT015 OVC035
      WS020/17040KT
     FM062000 09018G30KT 6SM RA BR BKN015 OVC030 WS020/17045KT
     FM070000 12010G20KT P6SM -RA SCT025 OVC040
     FM070300 09010KT P6SM -SHRA SCT015 OVC035
     FM070700 09006KT P6SM VCSH SCT035 OVC060
      AMD LTD TO CLD VIS AND WIND=

USA.gov is the U.S. government's official web portal to all federal, state and local government web resources and services.